Time;durP1;ratioP1;P1;durP2;ratioP2;P2;SDS_P1;SDS_P2;PMS_P1;PMS_P2;Temp;Humidity;BMP_temperature;BMP_pressure;BME280_temperature;BME280_humidity;BME280_pressure;Samples;Min_cycle;Max_cycle;Signal;HPM_P1;HPM_P2
2021/12/21 00:02:13;;;;;;;63.23;26.43;;;;;;;;;;4451674;32;20297;-56
2021/12/21 00:04:39;;;;;;;55.50;27.53;;;;;;;;;;4460587;32;20345;-57
2021/12/21 00:07:05;;;;;;;36.80;17.60;;;;;;;;;;4464453;32;20270;-56
2021/12/21 00:09:31;;;;;;;40.70;18.33;;;;;;;;;;4465969;32;20287;-56
2021/12/21 00:11:58;;;;;;;48.53;20.63;;;;;;;;;;4462744;32;20608;-55
2021/12/21 00:14:36;;;;;;;49.50;20.10;;;;;;;;;;4448931;32;20251;-56
2021/12/21 00:22:26;;;;;;;48.90;22.47;;;;;;;;;;4464486;32;20216;-56
2021/12/21 00:24:51;;;;;;;35.43;16.97;;;;;;;;;;4463782;32;20292;-54
2021/12/21 00:27:17;;;;;;;23.50;11.47;;;;;;;;;;4463253;32;20216;-54
2021/12/21 00:29:42;;;;;;;23.83;10.93;;;;;;;;;;4463866;32;20236;-55
2021/12/21 00:32:09;;;;;;;15.80;9.87;;;;;;;;;;4465442;32;20275;-56
2021/12/21 00:34:34;;;;;;;21.10;9.73;;;;;;;;;;4465457;32;20370;-55
2021/12/21 00:37:00;;;;;;;14.13;7.80;;;;;;;;;;4463712;32;20640;-55
2021/12/21 00:39:25;;;;;;;14.00;6.13;;;;;;;;;;4455408;32;20692;-55
2021/12/21 00:41:51;;;;;;;26.10;11.77;;;;;;;;;;4465732;32;20849;-55
2021/12/21 00:44:16;;;;;;;9.07;5.17;;;;;;;;;;4463997;32;20267;-56
2021/12/21 00:46:44;;;;;;;16.27;7.20;;;;;;;;;;4464868;32;20532;-56
2021/12/21 00:49:16;;;;;;;7.57;5.00;;;;;;;;;;4449939;32;20366;-55
2021/12/21 00:51:44;;;;;;;8.40;4.80;;;;;;;;;;4452682;32;20239;-55
2021/12/21 00:54:11;;;;;;;8.57;4.63;;;;;;;;;;4452985;32;20267;-55
2021/12/21 00:56:36;;;;;;;7.00;4.03;;;;;;;;;;4464674;32;20319;-55
2021/12/21 00:59:03;;;;;;;9.70;5.00;;;;;;;;;;4465370;32;20667;-56
2021/12/21 01:01:28;;;;;;;8.13;4.47;;;;;;;;;;4463401;32;20385;-56
2021/12/21 01:03:56;;;;;;;6.97;4.40;;;;;;;;;;4465534;32;20287;-55
2021/12/21 01:06:38;;;;;;;4.10;3.70;;;;;;;;;;4465075;32;20228;-55
2021/12/21 01:09:13;;;;;;;6.43;3.10;;;;;;;;;;4464055;32;20228;-57
2021/12/21 01:11:47;;;;;;;7.40;3.60;;;;;;;;;;4448458;32;20287;-59
2021/12/21 01:17:11;;;;;;;4.07;3.13;;;;;;;;;;4449086;32;20228;-57
2021/12/21 01:19:57;;;;;;;8.70;4.73;;;;;;;;;;4449473;32;20210;-57
2021/12/21 01:25:12;;;;;;;18.83;7.37;;;;;;;;;;4464922;32;20201;-56
2021/12/21 01:30:25;;;;;;;15.90;8.13;;;;;;;;;;4449094;32;20216;-55
2021/12/21 01:35:34;;;;;;;7.70;4.80;;;;;;;;;;4464722;32;20674;-55
2021/12/21 01:38:08;;;;;;;9.93;5.17;;;;;;;;;;4463795;32;20290;-55
2021/12/21 01:43:19;;;;;;;9.47;6.27;;;;;;;;;;4464235;32;20287;-55
2021/12/21 01:51:15;;;;;;;8.53;3.77;;;;;;;;;;4460178;32;20243;-56
2021/12/21 01:53:42;;;;;;;8.50;4.93;;;;;;;;;;4451224;32;20627;-57
2021/12/21 01:56:07;;;;;;;11.80;6.33;;;;;;;;;;4448828;32;20569;-55
2021/12/21 01:58:34;;;;;;;11.10;5.63;;;;;;;;;;4458193;32;20354;-56
2021/12/21 02:01:02;;;;;;;7.90;5.23;;;;;;;;;;4453516;32;20331;-55
2021/12/21 02:03:28;;;;;;;10.33;4.20;;;;;;;;;;4461184;32;20212;-57
2021/12/21 02:05:53;;;;;;;5.70;3.93;;;;;;;;;;4464529;32;20247;-56
2021/12/21 02:08:19;;;;;;;8.27;4.23;;;;;;;;;;4464177;32;20325;-56
2021/12/21 02:10:45;;;;;;;6.23;3.60;;;;;;;;;;4462615;32;20644;-56
2021/12/21 02:13:11;;;;;;;2.83;2.37;;;;;;;;;;4446730;32;20320;-55
2021/12/21 02:15:36;;;;;;;5.10;2.20;;;;;;;;;;4463528;32;20228;-55
2021/12/21 02:20:53;;;;;;;6.83;3.47;;;;;;;;;;4448934;32;20209;-55
2021/12/21 02:23:26;;;;;;;9.90;5.20;;;;;;;;;;4448693;32;20240;-55
2021/12/21 02:31:04;;;;;;;15.70;6.93;;;;;;;;;;4448441;32;20243;-56
2021/12/21 02:33:30;;;;;;;19.10;6.63;;;;;;;;;;4447129;32;20224;-57
2021/12/21 02:35:57;;;;;;;10.23;6.17;;;;;;;;;;4459595;32;20331;-57
2021/12/21 02:38:23;;;;;;;12.37;6.80;;;;;;;;;;4463014;32;20279;-57
2021/12/21 02:40:49;;;;;;;13.20;6.73;;;;;;;;;;4463077;32;20612;-57
2021/12/21 02:43:15;;;;;;;13.80;6.97;;;;;;;;;;4463917;32;20204;-56
2021/12/21 02:45:41;;;;;;;13.90;6.67;;;;;;;;;;4463816;32;20207;-56
2021/12/21 02:48:07;;;;;;;14.07;7.37;;;;;;;;;;4462950;32;20256;-56
2021/12/21 02:50:33;;;;;;;15.57;5.97;;;;;;;;;;4448315;32;20278;-56
2021/12/21 02:53:01;;;;;;;9.90;4.87;;;;;;;;;;4447988;32;20625;-56
2021/12/21 02:55:26;;;;;;;9.07;5.80;;;;;;;;;;4448422;32;20216;-56
2021/12/21 02:57:52;;;;;;;16.10;5.30;;;;;;;;;;4453420;32;20286;-56
2021/12/21 03:00:18;;;;;;;9.00;4.70;;;;;;;;;;4463641;32;20212;-55
2021/12/21 03:02:44;;;;;;;6.27;3.50;;;;;;;;;;4463468;32;20235;-56
2021/12/21 03:05:09;;;;;;;5.47;3.30;;;;;;;;;;4464022;32;20303;-56
2021/12/21 03:10:25;;;;;;;6.23;3.33;;;;;;;;;;4463614;32;20246;-57
2021/12/21 03:15:18;;;;;;;6.00;3.90;;;;;;;;;;4463050;32;20212;-57
2021/12/21 03:17:44;;;;;;;6.87;4.33;;;;;;;;;;4462442;32;20250;-57
2021/12/21 03:20:10;;;;;;;9.10;4.23;;;;;;;;;;4463564;32;20295;-57
2021/12/21 03:22:35;;;;;;;4.83;3.23;;;;;;;;;;4463635;32;20279;-57
2021/12/21 03:25:01;;;;;;;9.53;4.17;;;;;;;;;;4463443;32;20236;-56
2021/12/21 03:27:26;;;;;;;4.97;2.90;;;;;;;;;;4463516;32;20771;-57
2021/12/21 03:29:51;;;;;;;3.20;2.67;;;;;;;;;;4463485;32;20250;-56
2021/12/21 03:32:17;;;;;;;4.93;3.10;;;;;;;;;;4463180;32;20581;-56
2021/12/21 03:34:42;;;;;;;6.00;3.60;;;;;;;;;;4463498;32;20240;-56
2021/12/21 03:37:13;;;;;;;5.73;3.50;;;;;;;;;;4463634;32;20192;-56
2021/12/21 03:39:43;;;;;;;7.87;5.60;;;;;;;;;;4462269;32;20205;-56
2021/12/21 03:42:10;;;;;;;10.60;6.10;;;;;;;;;;4463452;32;20655;-56
2021/12/21 03:44:36;;;;;;;8.93;6.67;;;;;;;;;;4462333;32;20341;-57
2021/12/21 03:47:03;;;;;;;14.03;6.10;;;;;;;;;;4463059;32;20710;-57
2021/12/21 03:52:03;;;;;;;11.47;7.17;;;;;;;;;;4464880;32;20248;-58
2021/12/21 03:54:28;;;;;;;13.13;7.10;;;;;;;;;;4466779;32;20225;-56
2021/12/21 03:56:54;;;;;;;14.00;6.50;;;;;;;;;;4466204;32;20262;-56
2021/12/21 03:59:21;;;;;;;14.37;7.63;;;;;;;;;;4466594;32;20612;-57
2021/12/21 04:01:48;;;;;;;10.20;5.80;;;;;;;;;;4464532;32;20288;-56
2021/12/21 04:04:14;;;;;;;11.37;6.57;;;;;;;;;;4466342;32;20239;-56
2021/12/21 04:06:39;;;;;;;12.30;7.30;;;;;;;;;;4466459;32;20675;-56
2021/12/21 04:09:07;;;;;;;16.17;8.07;;;;;;;;;;4465948;32;20275;-58
2021/12/21 04:11:33;;;;;;;12.10;6.93;;;;;;;;;;4465673;32;20858;-56
2021/12/21 04:13:59;;;;;;;12.83;6.33;;;;;;;;;;4465960;32;20267;-58
2021/12/21 04:16:25;;;;;;;12.10;6.77;;;;;;;;;;4465774;32;20216;-57
2021/12/21 04:18:50;;;;;;;6.43;4.90;;;;;;;;;;4466175;32;20259;-58
2021/12/21 04:21:16;;;;;;;10.20;5.50;;;;;;;;;;4465068;32;20302;-57
2021/12/21 04:23:43;;;;;;;19.10;8.60;;;;;;;;;;4465900;32;20517;-57
2021/12/21 04:26:10;;;;;;;25.20;9.33;;;;;;;;;;4464546;32;20315;-57
2021/12/21 04:28:35;;;;;;;9.20;5.43;;;;;;;;;;4465707;32;20669;-57
2021/12/21 04:31:02;;;;;;;11.63;5.43;;;;;;;;;;4465487;32;20642;-57
2021/12/21 04:33:27;;;;;;;8.40;4.67;;;;;;;;;;4465470;32;20200;-56
2021/12/21 04:35:53;;;;;;;11.83;5.97;;;;;;;;;;4465683;32;20343;-56
2021/12/21 04:38:28;;;;;;;11.13;6.57;;;;;;;;;;4465655;32;20200;-57
2021/12/21 04:41:01;;;;;;;21.83;6.70;;;;;;;;;;4465648;32;20212;-57
2021/12/21 04:43:27;;;;;;;19.53;10.50;;;;;;;;;;4465603;32;20565;-58
2021/12/21 04:45:52;;;;;;;27.03;13.53;;;;;;;;;;4465538;32;20235;-58
2021/12/21 04:48:18;;;;;;;19.37;11.50;;;;;;;;;;4463819;32;20227;-57
2021/12/21 04:50:46;;;;;;;15.83;7.97;;;;;;;;;;4465510;32;20232;-57
2021/12/21 04:53:12;;;;;;;24.40;7.03;;;;;;;;;;4464043;32;20342;-57
2021/12/21 04:55:38;;;;;;;14.60;7.93;;;;;;;;;;4465682;32;20244;-57
2021/12/21 04:58:04;;;;;;;17.57;8.83;;;;;;;;;;4465213;32;20281;-57
2021/12/21 05:00:30;;;;;;;19.83;9.97;;;;;;;;;;4465328;32;20609;-57
2021/12/21 05:02:55;;;;;;;18.63;9.63;;;;;;;;;;4463928;32;20233;-57
2021/12/21 05:05:21;;;;;;;13.40;7.90;;;;;;;;;;4465648;32;20284;-56
2021/12/21 05:07:52;;;;;;;11.67;6.50;;;;;;;;;;4463796;32;20714;-56
2021/12/21 05:10:19;;;;;;;7.53;5.77;;;;;;;;;;4451902;32;20220;-56
2021/12/21 05:12:45;;;;;;;26.77;16.20;;;;;;;;;;4465565;32;20216;-56
2021/12/21 05:15:11;;;;;;;22.03;8.43;;;;;;;;;;4460867;32;20344;-56
2021/12/21 05:17:36;;;;;;;12.20;6.27;;;;;;;;;;4463501;32;20230;-56
2021/12/21 05:20:02;;;;;;;10.90;6.70;;;;;;;;;;4463373;32;20232;-57
2021/12/21 05:22:28;;;;;;;13.47;7.30;;;;;;;;;;4465277;32;20219;-55
2021/12/21 05:24:54;;;;;;;6.70;4.30;;;;;;;;;;4464605;32;20521;-56
2021/12/21 05:27:19;;;;;;;10.47;5.37;;;;;;;;;;4465320;32;20323;-56
2021/12/21 05:29:45;;;;;;;6.07;4.03;;;;;;;;;;4464915;32;20287;-57
2021/12/21 05:32:11;;;;;;;10.70;5.10;;;;;;;;;;4464281;32;20339;-55
2021/12/21 05:34:36;;;;;;;4.60;3.30;;;;;;;;;;4464708;32;20223;-57
2021/12/21 05:37:06;;;;;;;6.67;4.07;;;;;;;;;;4464183;32;20739;-57
2021/12/21 05:39:41;;;;;;;7.13;4.43;;;;;;;;;;4463963;32;20636;-58
2021/12/21 05:42:07;;;;;;;7.97;3.77;;;;;;;;;;4464619;32;20230;-56
2021/12/21 05:44:33;;;;;;;6.87;3.20;;;;;;;;;;4464784;32;20271;-56
2021/12/21 05:46:58;;;;;;;5.60;3.43;;;;;;;;;;4464279;32;20742;-57
2021/12/21 05:49:24;;;;;;;5.33;3.73;;;;;;;;;;4463896;32;20810;-56
2021/12/21 05:51:50;;;;;;;6.87;4.13;;;;;;;;;;4456108;32;20326;-56
2021/12/21 05:54:18;;;;;;;11.43;4.10;;;;;;;;;;4448083;32;20289;-56
2021/12/21 05:56:44;;;;;;;6.10;3.17;;;;;;;;;;4448348;32;20224;-56
2021/12/21 05:59:10;;;;;;;3.47;2.57;;;;;;;;;;4463408;32;20346;-56
2021/12/21 06:01:35;;;;;;;13.00;3.03;;;;;;;;;;4463293;32;20285;-57
2021/12/21 06:04:02;;;;;;;4.33;2.90;;;;;;;;;;4462965;32;20377;-58
2021/12/21 06:06:30;;;;;;;8.83;5.10;;;;;;;;;;4463440;32;20590;-57
2021/12/21 06:08:58;;;;;;;7.53;4.97;;;;;;;;;;4463188;32;20651;-57
2021/12/21 06:11:23;;;;;;;11.60;4.27;;;;;;;;;;4463678;32;20232;-57
2021/12/21 06:27:07;;;;;;;21.57;9.80;;;;;;;;;;4451280;32;20261;-55
2021/12/21 06:29:33;;;;;;;14.73;7.70;;;;;;;;;;4447263;32;20228;-55
2021/12/21 06:31:58;;;;;;;6.00;3.43;;;;;;;;;;4457423;32;20334;-55
2021/12/21 06:34:24;;;;;;;8.20;4.93;;;;;;;;;;4450570;32;20678;-57
2021/12/21 06:36:50;;;;;;;8.80;5.20;;;;;;;;;;4455370;32;20283;-56
2021/12/21 06:39:16;;;;;;;4.37;3.57;;;;;;;;;;4446889;32;20294;-58
2021/12/21 06:41:41;;;;;;;4.07;3.30;;;;;;;;;;4444809;32;20255;-57
2021/12/21 06:44:09;;;;;;;13.77;5.17;;;;;;;;;;4445127;32;20291;-57
2021/12/21 06:46:51;;;;;;;10.47;7.10;;;;;;;;;;4446688;32;20254;-58
2021/12/21 06:52:12;;;;;;;12.27;5.00;;;;;;;;;;4434814;32;20284;-56
2021/12/21 06:54:37;;;;;;;13.73;4.07;;;;;;;;;;4460694;32;20294;-57
2021/12/21 06:57:03;;;;;;;10.63;5.40;;;;;;;;;;4462637;32;20220;-56
2021/12/21 06:59:29;;;;;;;12.97;5.40;;;;;;;;;;4448633;32;20792;-57
2021/12/21 07:01:55;;;;;;;17.13;6.63;;;;;;;;;;4448035;32;20233;-56
2021/12/21 07:04:20;;;;;;;11.07;4.77;;;;;;;;;;4447936;32;20676;-57
2021/12/21 07:06:46;;;;;;;9.20;4.87;;;;;;;;;;4447210;32;20388;-56
2021/12/21 07:11:46;;;;;;;3.47;3.17;;;;;;;;;;4454426;32;20315;-56
2021/12/21 07:19:44;;;;;;;7.50;4.57;;;;;;;;;;4454886;32;20234;-55
2021/12/21 07:22:11;;;;;;;14.47;7.87;;;;;;;;;;4463685;32;20633;-56
2021/12/21 07:24:37;;;;;;;14.13;6.07;;;;;;;;;;4461158;32;20637;-58
2021/12/21 07:27:03;;;;;;;12.57;5.63;;;;;;;;;;4463277;32;20387;-57
2021/12/21 07:29:28;;;;;;;13.17;6.87;;;;;;;;;;4464078;32;20526;-56
2021/12/21 07:31:54;;;;;;;27.90;7.57;;;;;;;;;;4456919;32;20241;-55
2021/12/21 07:34:20;;;;;;;12.20;7.37;;;;;;;;;;4451257;32;20298;-56
2021/12/21 07:36:45;;;;;;;12.40;7.50;;;;;;;;;;4447408;32;20236;-55
2021/12/21 07:39:14;;;;;;;13.20;8.50;;;;;;;;;;4454331;32;20779;-57
2021/12/21 07:41:41;;;;;;;13.17;7.67;;;;;;;;;;4461767;32;20252;-56
2021/12/21 07:44:07;;;;;;;16.80;9.77;;;;;;;;;;4463679;32;20233;-56
2021/12/21 07:46:33;;;;;;;12.17;6.77;;;;;;;;;;4451163;32;20459;-56
2021/12/21 07:48:58;;;;;;;13.10;6.03;;;;;;;;;;4449494;32;20272;-56
2021/12/21 07:51:24;;;;;;;9.97;5.40;;;;;;;;;;4445800;32;20444;-57
2021/12/21 07:53:50;;;;;;;11.60;6.40;;;;;;;;;;4448850;32;20323;-57
2021/12/21 07:56:16;;;;;;;9.57;4.20;;;;;;;;;;4460063;32;20271;-56
2021/12/21 07:58:43;;;;;;;8.03;5.00;;;;;;;;;;4466457;32;20664;-56
2021/12/21 08:01:09;;;;;;;5.40;3.80;;;;;;;;;;4455316;32;20296;-58
2021/12/21 08:03:35;;;;;;;4.97;4.00;;;;;;;;;;4464299;32;20248;-56
2021/12/21 08:06:03;;;;;;;5.90;4.47;;;;;;;;;;4449471;32;20241;-56
2021/12/21 08:08:30;;;;;;;5.57;3.20;;;;;;;;;;4450509;32;20223;-55
2021/12/21 08:13:43;;;;;;;11.30;5.40;;;;;;;;;;4450158;32;20196;-56
2021/12/21 08:16:09;;;;;;;8.73;4.70;;;;;;;;;;4458252;32;20287;-56
2021/12/21 08:18:35;;;;;;;4.80;3.13;;;;;;;;;;4464594;32;20299;-57
2021/12/21 08:21:01;;;;;;;8.67;3.83;;;;;;;;;;4466202;32;20239;-56
2021/12/21 08:23:26;;;;;;;5.13;3.63;;;;;;;;;;4465002;32;20207;-56
2021/12/21 08:25:54;;;;;;;14.23;6.47;;;;;;;;;;4455328;32;20254;-58
2021/12/21 08:28:20;;;;;;;10.70;5.87;;;;;;;;;;4464501;32;20272;-57
2021/12/21 08:30:46;;;;;;;8.30;4.50;;;;;;;;;;4463626;32;20244;-55
2021/12/21 08:33:11;;;;;;;3.87;2.70;;;;;;;;;;4464894;32;20227;-55
2021/12/21 08:35:37;;;;;;;8.93;5.33;;;;;;;;;;4454899;32;20254;-55
2021/12/21 08:38:05;;;;;;;7.70;3.63;;;;;;;;;;4462375;32;20327;-56
2021/12/21 08:40:38;;;;;;;11.33;6.70;;;;;;;;;;4464778;32;20291;-56
2021/12/21 08:43:10;;;;;;;9.97;5.37;;;;;;;;;;4450670;32;20216;-56
2021/12/21 08:45:37;;;;;;;10.37;5.17;;;;;;;;;;4455226;32;20212;-55
2021/12/21 08:48:05;;;;;;;12.83;6.23;;;;;;;;;;4462595;32;20196;-55
2021/12/21 08:50:31;;;;;;;18.07;6.73;;;;;;;;;;4462923;32;20373;-56
2021/12/21 08:52:58;;;;;;;14.90;6.07;;;;;;;;;;4461279;32;20224;-56
2021/12/21 08:55:23;;;;;;;13.97;6.40;;;;;;;;;;4462510;32;20235;-56
2021/12/21 08:57:49;;;;;;;7.40;4.73;;;;;;;;;;4462377;32;20208;-56
2021/12/21 09:00:15;;;;;;;8.60;5.57;;;;;;;;;;4456854;32;20710;-56
2021/12/21 09:02:40;;;;;;;20.50;6.50;;;;;;;;;;4465739;31;20244;-56
2021/12/21 09:05:12;;;;;;;8.57;5.70;;;;;;;;;;4448525;32;20233;-55
2021/12/21 09:07:48;;;;;;;16.70;9.17;;;;;;;;;;4448199;32;20601;-56
2021/12/21 09:10:16;;;;;;;7.43;4.47;;;;;;;;;;4451112;32;20248;-56
2021/12/21 09:12:43;;;;;;;15.17;6.70;;;;;;;;;;4463604;32;20545;-56
2021/12/21 09:15:10;;;;;;;15.67;7.23;;;;;;;;;;4450659;32;20315;-57
2021/12/21 09:17:36;;;;;;;16.77;7.00;;;;;;;;;;4457876;32;20212;-56
2021/12/21 09:20:03;;;;;;;5.07;3.27;;;;;;;;;;4459142;32;20220;-55
2021/12/21 09:22:29;;;;;;;19.67;9.07;;;;;;;;;;4451385;32;20268;-56
2021/12/21 09:24:56;;;;;;;4.47;2.97;;;;;;;;;;4449083;32;20232;-55
2021/12/21 09:27:21;;;;;;;10.00;5.80;;;;;;;;;;4458562;32;20213;-56
2021/12/21 09:29:47;;;;;;;12.93;5.97;;;;;;;;;;4451042;32;20310;-58
2021/12/21 09:32:18;;;;;;;10.53;6.00;;;;;;;;;;4448343;32;20299;-58
2021/12/21 09:34:45;;;;;;;8.00;4.83;;;;;;;;;;4460861;32;20270;-57
2021/12/21 09:37:15;;;;;;;6.30;3.43;;;;;;;;;;4462483;32;20291;-56
2021/12/21 09:39:50;;;;;;;9.87;5.67;;;;;;;;;;4453916;32;20205;-56
2021/12/21 09:42:18;;;;;;;7.43;4.60;;;;;;;;;;4452979;32;20239;-55
2021/12/21 09:44:43;;;;;;;4.33;3.03;;;;;;;;;;4455138;32;20279;-56
2021/12/21 09:47:10;;;;;;;4.77;3.60;;;;;;;;;;4462636;32;20287;-57
2021/12/21 09:49:40;;;;;;;8.03;5.17;;;;;;;;;;4458906;32;20322;-56
2021/12/21 09:52:07;;;;;;;5.17;3.73;;;;;;;;;;4461805;32;20222;-58
2021/12/21 09:54:34;;;;;;;6.67;4.80;;;;;;;;;;4454556;32;20585;-58
2021/12/21 09:57:00;;;;;;;6.73;3.07;;;;;;;;;;4447443;32;20673;-57
2021/12/21 09:59:26;;;;;;;3.80;2.60;;;;;;;;;;4456930;32;20251;-58
2021/12/21 10:01:55;;;;;;;8.60;3.43;;;;;;;;;;4448103;32;20315;-58
2021/12/21 10:04:21;;;;;;;9.03;3.27;;;;;;;;;;4446846;32;20231;-59
2021/12/21 10:06:49;;;;;;;8.87;3.23;;;;;;;;;;4445456;32;20603;-58
2021/12/21 10:09:18;;;;;;;7.37;4.57;;;;;;;;;;4458730;32;20319;-58
2021/12/21 10:11:49;;;;;;;5.93;3.87;;;;;;;;;;4453348;32;20266;-58
2021/12/21 10:14:16;;;;;;;7.93;4.60;;;;;;;;;;4448486;32;20209;-58
2021/12/21 10:16:43;;;;;;;9.00;4.10;;;;;;;;;;4461732;32;20254;-61
2021/12/21 10:19:19;;;;;;;6.97;2.67;;;;;;;;;;4447357;32;20358;-58
2021/12/21 10:21:45;;;;;;;11.20;6.93;;;;;;;;;;4450671;31;20250;-58
2021/12/21 10:24:22;;;;;;;16.60;9.20;;;;;;;;;;4460750;32;20511;-57
2021/12/21 10:26:47;;;;;;;15.40;6.47;;;;;;;;;;4445921;32;20232;-58
2021/12/21 10:29:15;;;;;;;20.27;9.67;;;;;;;;;;4460955;32;20306;-58
2021/12/21 10:31:45;;;;;;;18.20;10.57;;;;;;;;;;4446192;32;20232;-59
2021/12/21 10:34:14;;;;;;;23.27;13.57;;;;;;;;;;4446691;32;20224;-58
2021/12/21 10:36:41;;;;;;;19.73;9.37;;;;;;;;;;4460686;32;20258;-57
2021/12/21 10:39:07;;;;;;;22.90;12.70;;;;;;;;;;4455390;32;20592;-59
2021/12/21 10:41:34;;;;;;;11.53;6.47;;;;;;;;;;4462803;32;20303;-59
2021/12/21 10:44:02;;;;;;;6.53;3.57;;;;;;;;;;4462401;32;20317;-58
2021/12/21 10:46:30;;;;;;;12.30;7.33;;;;;;;;;;4456660;32;20736;-58
2021/12/21 10:49:09;;;;;;;20.43;8.77;;;;;;;;;;4462738;32;20235;-59
2021/12/21 10:51:37;;;;;;;12.37;6.07;;;;;;;;;;4449893;32;20310;-58
2021/12/21 10:54:03;;;;;;;2.60;2.13;;;;;;;;;;4447585;32;20323;-58
2021/12/21 10:56:28;;;;;;;2.63;1.90;;;;;;;;;;4447427;32;20383;-59
2021/12/21 10:58:54;;;;;;;6.77;4.40;;;;;;;;;;4447472;32;20295;-58
2021/12/21 11:01:27;;;;;;;4.57;2.47;;;;;;;;;;4447687;32;20776;-57
2021/12/21 11:03:55;;;;;;;4.27;3.13;;;;;;;;;;4450021;32;20974;-58
2021/12/21 11:06:26;;;;;;;9.10;5.43;;;;;;;;;;4451854;32;20736;-57
2021/12/21 11:08:54;;;;;;;11.47;5.60;;;;;;;;;;4447623;32;20266;-59
2021/12/21 11:11:30;;;;;;;4.43;3.13;;;;;;;;;;4450449;32;20414;-58
2021/12/21 11:14:08;;;;;;;7.87;4.30;;;;;;;;;;4446611;32;20732;-59
2021/12/21 11:16:45;;;;;;;2.20;2.00;;;;;;;;;;4455717;32;20239;-58
2021/12/21 11:19:13;;;;;;;5.20;2.63;;;;;;;;;;4451171;32;20636;-57
2021/12/21 11:21:40;;;;;;;9.83;5.87;;;;;;;;;;4448262;32;20200;-59
2021/12/21 11:24:08;;;;;;;14.47;7.57;;;;;;;;;;4446951;32;20216;-57
2021/12/21 11:26:36;;;;;;;8.60;6.00;;;;;;;;;;4458289;32;20259;-57
2021/12/21 11:29:05;;;;;;;21.70;9.83;;;;;;;;;;4462077;32;20260;-57
2021/12/21 11:31:32;;;;;;;6.37;3.20;;;;;;;;;;4448835;32;20338;-57
2021/12/21 11:33:59;;;;;;;11.90;5.77;;;;;;;;;;4459923;32;20310;-58
2021/12/21 11:39:31;;;;;;;4.83;3.47;;;;;;;;;;4413739;32;20193;-57
2021/12/21 11:41:58;;;;;;;9.47;4.97;;;;;;;;;;4412585;32;20243;-56
2021/12/21 11:44:32;;;;;;;4.20;3.13;;;;;;;;;;4429830;32;20640;-57
2021/12/21 11:47:01;;;;;;;4.40;3.10;;;;;;;;;;4456627;32;20240;-57
2021/12/21 11:49:50;;;;;;;10.00;5.30;;;;;;;;;;4459230;32;20212;-59
2021/12/21 11:52:23;;;;;;;10.83;4.87;;;;;;;;;;4453422;32;20660;-58
2021/12/21 11:54:55;;;;;;;4.97;2.43;;;;;;;;;;4459063;32;20663;-57
2021/12/21 11:57:37;;;;;;;8.40;3.87;;;;;;;;;;4460475;32;20224;-58
2021/12/21 12:00:24;;;;;;;4.20;3.03;;;;;;;;;;4458539;32;20224;-56
2021/12/21 12:02:52;;;;;;;13.33;5.00;;;;;;;;;;4454291;32;20794;-56
2021/12/21 12:05:28;;;;;;;10.23;5.03;;;;;;;;;;4445584;32;20306;-56
2021/12/21 12:08:05;;;;;;;12.47;5.77;;;;;;;;;;4448831;32;20211;-55
2021/12/21 12:10:37;;;;;;;22.63;7.97;;;;;;;;;;4463187;32;20216;-56
2021/12/21 12:13:26;;;;;;;14.73;7.50;;;;;;;;;;4456774;32;20212;-55
2021/12/21 12:15:55;;;;;;;6.50;3.67;;;;;;;;;;4454369;32;20224;-57
2021/12/21 12:18:23;;;;;;;7.30;4.83;;;;;;;;;;4454876;32;20265;-56
2021/12/21 12:20:49;;;;;;;23.00;9.30;;;;;;;;;;4450074;32;20247;-55
2021/12/21 12:23:16;;;;;;;11.03;4.47;;;;;;;;;;4449498;32;20364;-56
2021/12/21 12:25:51;;;;;;;9.43;5.53;;;;;;;;;;4447661;32;20254;-56
2021/12/21 12:28:22;;;;;;;8.10;3.73;;;;;;;;;;4458428;32;20233;-56
2021/12/21 12:30:49;;;;;;;11.93;4.97;;;;;;;;;;4459526;32;20260;-56
2021/12/21 12:33:14;;;;;;;12.73;6.23;;;;;;;;;;4454433;32;20232;-57
2021/12/21 12:35:42;;;;;;;15.23;6.63;;;;;;;;;;4453017;32;20379;-56
2021/12/21 12:38:21;;;;;;;14.40;7.50;;;;;;;;;;4449139;32;20213;-57
2021/12/21 12:40:57;;;;;;;21.20;8.43;;;;;;;;;;4453197;32;20327;-57
2021/12/21 12:43:27;;;;;;;7.17;4.43;;;;;;;;;;4461460;32;20245;-57
2021/12/21 12:46:01;;;;;;;5.27;4.27;;;;;;;;;;4459203;32;20774;-57
2021/12/21 12:48:32;;;;;;;7.53;4.60;;;;;;;;;;4458257;32;20200;-57
2021/12/21 12:51:02;;;;;;;12.33;4.60;;;;;;;;;;4464179;32;20235;-57
2021/12/21 12:53:42;;;;;;;8.77;4.53;;;;;;;;;;4464775;32;20505;-56
2021/12/21 12:56:11;;;;;;;14.13;4.87;;;;;;;;;;4464688;32;20242;-56
2021/12/21 12:58:57;;;;;;;8.70;4.40;;;;;;;;;;4464582;32;20237;-56
2021/12/21 13:01:26;;;;;;;4.80;3.70;;;;;;;;;;4449675;32;20290;-56
2021/12/21 13:03:59;;;;;;;20.20;6.53;;;;;;;;;;4448624;32;20714;-57
2021/12/21 13:06:29;;;;;;;15.27;6.37;;;;;;;;;;4449961;32;20224;-56
2021/12/21 13:08:54;;;;;;;15.00;6.27;;;;;;;;;;4462181;32;20238;-56
2021/12/21 13:11:26;;;;;;;11.30;5.13;;;;;;;;;;4457220;32;20307;-56
2021/12/21 13:13:53;;;;;;;17.17;7.03;;;;;;;;;;4461102;32;20524;-56
2021/12/21 13:16:28;;;;;;;7.03;4.43;;;;;;;;;;4463888;32;20625;-57
2021/12/21 13:18:56;;;;;;;4.77;3.13;;;;;;;;;;4452056;32;20210;-57
2021/12/21 13:21:33;;;;;;;6.53;3.93;;;;;;;;;;4462762;32;20364;-56
2021/12/21 13:24:11;;;;;;;6.00;4.63;;;;;;;;;;4450663;32;20270;-56
2021/12/21 13:26:48;;;;;;;15.93;4.90;;;;;;;;;;4453508;32;20315;-55
2021/12/21 13:29:16;;;;;;;14.23;5.90;;;;;;;;;;4464794;32;20576;-56
2021/12/21 13:31:43;;;;;;;7.03;4.97;;;;;;;;;;4464067;32;20215;-55
2021/12/21 13:34:08;;;;;;;5.57;4.00;;;;;;;;;;4463251;32;20220;-57
2021/12/21 13:37:02;;;;;;;6.77;3.50;;;;;;;;;;4464301;32;20564;-56
2021/12/21 13:39:34;;;;;;;6.10;4.17;;;;;;;;;;4461824;32;20282;-55
2021/12/21 13:42:25;;;;;;;6.47;3.53;;;;;;;;;;4450658;32;20279;-56
2021/12/21 13:44:53;;;;;;;26.40;10.53;;;;;;;;;;4448132;32;20389;-56
2021/12/21 13:47:31;;;;;;;21.13;8.53;;;;;;;;;;4462124;32;20307;-56
2021/12/21 13:50:08;;;;;;;28.83;13.83;;;;;;;;;;4464367;32;20229;-56
2021/12/21 13:52:43;;;;;;;7.90;5.40;;;;;;;;;;4462702;32;20299;-57
2021/12/21 13:55:33;;;;;;;7.17;3.80;;;;;;;;;;4448535;32;20219;-56
2021/12/21 13:58:04;;;;;;;9.70;6.57;;;;;;;;;;4448797;32;20292;-56
2021/12/21 14:00:31;;;;;;;9.47;4.93;;;;;;;;;;4458718;32;20303;-55
2021/12/21 14:03:06;;;;;;;9.50;6.03;;;;;;;;;;4455051;32;20216;-56
2021/12/21 14:05:43;;;;;;;14.63;7.87;;;;;;;;;;4461896;32;20278;-57
2021/12/21 14:08:10;;;;;;;10.43;5.90;;;;;;;;;;4457734;32;20330;-57
2021/12/21 14:10:46;;;;;;;22.00;11.03;;;;;;;;;;4465714;32;20229;-56
2021/12/21 14:13:13;;;;;;;9.53;5.70;;;;;;;;;;4451246;32;20204;-56
2021/12/21 14:15:47;;;;;;;11.37;5.47;;;;;;;;;;4459140;32;20217;-57
2021/12/21 14:18:17;;;;;;;7.73;5.33;;;;;;;;;;4451071;32;20301;-56
2021/12/21 14:20:43;;;;;;;11.87;7.47;;;;;;;;;;4458740;32;20615;-56
2021/12/21 14:23:08;;;;;;;9.70;6.40;;;;;;;;;;4450876;32;20254;-56
2021/12/21 14:25:34;;;;;;;14.13;8.10;;;;;;;;;;4456978;32;20616;-56
2021/12/21 14:28:26;;;;;;;22.83;11.60;;;;;;;;;;4456267;32;20279;-56
2021/12/21 14:31:01;;;;;;;26.23;13.43;;;;;;;;;;4454816;32;20299;-56
2021/12/21 14:33:29;;;;;;;10.03;7.07;;;;;;;;;;4463272;32;20225;-56
2021/12/21 14:35:59;;;;;;;20.60;11.07;;;;;;;;;;4456751;32;20224;-56
2021/12/21 14:38:24;;;;;;;29.60;11.50;;;;;;;;;;4452860;32;20625;-55
2021/12/21 14:40:51;;;;;;;22.67;10.47;;;;;;;;;;4453633;32;20313;-58
2021/12/21 14:43:24;;;;;;;25.77;13.23;;;;;;;;;;4450942;32;20552;-57
2021/12/21 14:45:50;;;;;;;20.53;10.63;;;;;;;;;;4459106;32;20480;-55
2021/12/21 14:48:20;;;;;;;30.57;15.67;;;;;;;;;;4459884;32;20320;-56
2021/12/21 14:50:53;;;;;;;25.40;11.67;;;;;;;;;;4448499;32;20213;-56
2021/12/21 14:53:21;;;;;;;20.07;11.83;;;;;;;;;;4460427;32;20209;-56
2021/12/21 14:55:47;;;;;;;22.23;12.30;;;;;;;;;;4455187;32;20292;-56
2021/12/21 14:58:18;;;;;;;22.10;13.17;;;;;;;;;;4455165;32;20251;-56
2021/12/21 15:00:55;;;;;;;33.67;17.60;;;;;;;;;;4457273;32;20240;-56
2021/12/21 15:03:21;;;;;;;49.37;24.70;;;;;;;;;;4463074;32;20827;-56
2021/12/21 15:05:50;;;;;;;41.33;21.13;;;;;;;;;;4462015;32;20259;-56
2021/12/21 15:08:20;;;;;;;36.33;19.63;;;;;;;;;;4462287;32;20280;-56
2021/12/21 15:10:46;;;;;;;33.97;19.23;;;;;;;;;;4447435;32;20692;-56
2021/12/21 15:13:15;;;;;;;33.07;18.17;;;;;;;;;;4452149;32;20327;-56
2021/12/21 15:15:40;;;;;;;48.67;20.23;;;;;;;;;;4451123;32;20538;-55
2021/12/21 15:18:10;;;;;;;42.60;20.70;;;;;;;;;;4456378;32;20236;-56
2021/12/21 15:20:36;;;;;;;48.73;26.13;;;;;;;;;;4458982;32;20262;-55
2021/12/21 15:23:02;;;;;;;49.23;24.13;;;;;;;;;;4462005;32;20426;-56
2021/12/21 15:25:29;;;;;;;41.40;21.63;;;;;;;;;;4463527;32;20273;-56
2021/12/21 15:27:55;;;;;;;44.40;24.13;;;;;;;;;;4462338;32;20637;-56
2021/12/21 15:30:23;;;;;;;45.50;22.43;;;;;;;;;;4450817;32;20319;-56
2021/12/21 15:32:50;;;;;;;70.73;30.23;;;;;;;;;;4452905;32;20307;-56
2021/12/21 15:35:16;;;;;;;65.27;29.53;;;;;;;;;;4458424;32;20549;-56
2021/12/21 15:37:47;;;;;;;48.13;26.00;;;;;;;;;;4455905;32;20228;-56
2021/12/21 15:40:15;;;;;;;63.03;30.13;;;;;;;;;;4452527;32;20220;-55
2021/12/21 15:42:41;;;;;;;42.03;23.40;;;;;;;;;;4459996;32;20259;-55
2021/12/21 15:45:09;;;;;;;43.20;23.83;;;;;;;;;;4449984;32;20220;-56
2021/12/21 15:47:34;;;;;;;59.17;29.90;;;;;;;;;;4456831;32;20295;-56
2021/12/21 15:50:02;;;;;;;68.43;33.73;;;;;;;;;;4455731;32;20228;-56
2021/12/21 15:52:28;;;;;;;70.93;32.57;;;;;;;;;;4462233;32;20216;-57